Time;durP1;ratioP1;P1;durP2;ratioP2;P2;SDS_P1;SDS_P2;PMS_P1;PMS_P2;Temp;Humidity;BMP_temperature;BMP_pressure;BME280_temperature;BME280_humidity;BME280_pressure;Samples;Min_cycle;Max_cycle;Signal;HPM_P1;HPM_P2
2021/12/08 00:00:32;;;;;;;8.45;5.38;;;;;;;;;;6214833;23;20194;-74
2021/12/08 00:03:00;;;;;;;7.60;5.35;;;;;;;;;;6215091;23;20171;-73
2021/12/08 00:05:28;;;;;;;9.02;5.00;;;;;;;;;;6214885;23;20175;-73
2021/12/08 00:07:56;;;;;;;9.57;4.63;;;;;;;;;;6215289;23;20249;-73
2021/12/08 00:10:53;;;;;;;8.05;4.55;;;;;;;;;;6214464;23;20619;-73
2021/12/08 00:13:20;;;;;;;10.63;5.25;;;;;;;;;;6215456;23;20231;-73
2021/12/08 00:15:49;;;;;;;8.30;5.30;;;;;;;;;;6214867;23;20202;-73
2021/12/08 00:18:19;;;;;;;10.75;4.95;;;;;;;;;;6214921;23;20167;-73
2021/12/08 00:20:47;;;;;;;8.95;6.25;;;;;;;;;;6214604;23;20273;-73
2021/12/08 00:23:15;;;;;;;13.25;7.88;;;;;;;;;;6215161;23;20198;-73
2021/12/08 00:25:44;;;;;;;5.35;4.05;;;;;;;;;;6215035;23;20235;-74
2021/12/08 00:28:13;;;;;;;8.88;4.75;;;;;;;;;;6213662;23;20167;-75
2021/12/08 00:30:41;;;;;;;10.75;6.03;;;;;;;;;;6215045;23;20311;-73
2021/12/08 00:33:10;;;;;;;8.52;5.65;;;;;;;;;;6214216;23;20177;-74
2021/12/08 00:35:38;;;;;;;6.70;5.35;;;;;;;;;;6214656;23;20164;-74
2021/12/08 00:38:06;;;;;;;8.60;4.97;;;;;;;;;;6214544;23;20286;-73
2021/12/08 00:40:33;;;;;;;13.05;6.10;;;;;;;;;;6214572;23;20171;-73
2021/12/08 00:43:03;;;;;;;9.82;6.43;;;;;;;;;;6214850;23;20178;-73
2021/12/08 00:45:31;;;;;;;18.17;8.52;;;;;;;;;;6214486;23;20163;-73
2021/12/08 00:47:59;;;;;;;11.00;7.57;;;;;;;;;;6214920;23;20185;-73
2021/12/08 00:50:28;;;;;;;9.18;6.78;;;;;;;;;;6214542;23;20170;-72
2021/12/08 00:52:57;;;;;;;11.50;7.25;;;;;;;;;;6214564;23;20201;-75
2021/12/08 00:55:26;;;;;;;14.07;7.32;;;;;;;;;;6214690;23;20245;-72
2021/12/08 00:57:53;;;;;;;10.52;6.65;;;;;;;;;;6214978;23;20273;-73
2021/12/08 01:00:23;;;;;;;12.20;7.28;;;;;;;;;;6214745;23;20229;-73
2021/12/08 01:02:51;;;;;;;12.70;8.02;;;;;;;;;;6214416;23;20202;-73
2021/12/08 01:05:20;;;;;;;9.95;5.95;;;;;;;;;;6214976;23;20163;-74
2021/12/08 01:07:47;;;;;;;12.98;7.00;;;;;;;;;;6214483;23;20241;-73
2021/12/08 01:10:19;;;;;;;8.15;6.22;;;;;;;;;;6214002;23;20185;-75
2021/12/08 01:12:46;;;;;;;12.80;6.75;;;;;;;;;;6214137;23;20233;-73
2021/12/08 01:15:15;;;;;;;8.93;6.10;;;;;;;;;;6214821;23;20175;-73
2021/12/08 01:17:44;;;;;;;10.18;5.55;;;;;;;;;;6214096;23;20216;-75
2021/12/08 01:20:13;;;;;;;8.73;5.68;;;;;;;;;;6214696;23;20178;-73
2021/12/08 01:22:41;;;;;;;8.45;5.35;;;;;;;;;;6213740;23;20171;-74
2021/12/08 01:25:09;;;;;;;8.70;5.53;;;;;;;;;;6214565;23;20216;-74
2021/12/08 01:27:37;;;;;;;9.60;7.22;;;;;;;;;;6214063;23;20619;-74
2021/12/08 01:30:06;;;;;;;9.15;5.15;;;;;;;;;;6213688;23;20170;-74
2021/12/08 01:32:33;;;;;;;6.63;4.65;;;;;;;;;;6214864;23;20229;-73
2021/12/08 01:35:04;;;;;;;7.88;5.05;;;;;;;;;;6214960;23;20459;-73
2021/12/08 01:37:31;;;;;;;10.50;4.72;;;;;;;;;;6215221;23;20182;-73
2021/12/08 01:40:00;;;;;;;8.55;3.95;;;;;;;;;;6214999;23;20179;-73
2021/12/08 01:42:31;;;;;;;7.00;4.75;;;;;;;;;;6214866;23;20622;-73
2021/12/08 01:47:44;;;;;;;7.85;4.65;;;;;;;;;;6214744;23;20158;-74
2021/12/08 01:50:13;;;;;;;5.75;3.50;;;;;;;;;;6214392;23;20206;-73
2021/12/08 01:52:40;;;;;;;7.15;3.80;;;;;;;;;;6215155;23;20171;-74
2021/12/08 01:55:09;;;;;;;6.38;4.03;;;;;;;;;;6214579;23;20221;-74
2021/12/08 01:57:37;;;;;;;5.20;4.07;;;;;;;;;;6214722;23;20191;-74
2021/12/08 02:00:06;;;;;;;5.68;4.10;;;;;;;;;;6214855;23;20162;-73
2021/12/08 02:02:34;;;;;;;6.45;4.25;;;;;;;;;;6215278;23;20237;-73
2021/12/08 02:05:01;;;;;;;8.32;3.95;;;;;;;;;;6214458;23;20245;-73
2021/12/08 02:07:31;;;;;;;6.97;4.43;;;;;;;;;;6214763;23;20167;-73
2021/12/08 02:09:58;;;;;;;5.57;3.38;;;;;;;;;;6214577;23;20227;-74
2021/12/08 02:12:26;;;;;;;9.70;5.38;;;;;;;;;;6214701;23;20252;-73
2021/12/08 02:14:54;;;;;;;7.22;4.00;;;;;;;;;;6214500;23;20174;-73
2021/12/08 02:17:21;;;;;;;5.78;3.90;;;;;;;;;;6214708;23;20249;-73
2021/12/08 02:19:49;;;;;;;5.35;4.00;;;;;;;;;;6214735;23;20685;-73
2021/12/08 02:22:18;;;;;;;6.13;3.92;;;;;;;;;;6214499;23;20167;-74
2021/12/08 02:24:45;;;;;;;5.15;3.60;;;;;;;;;;6214618;23;20494;-74
2021/12/08 02:27:13;;;;;;;6.28;3.83;;;;;;;;;;6214738;23;20221;-74
2021/12/08 02:29:47;;;;;;;4.43;3.05;;;;;;;;;;6214294;23;20171;-73
2021/12/08 02:32:32;;;;;;;4.00;2.85;;;;;;;;;;6214382;23;20151;-73
2021/12/08 02:48:53;;;;;;;6.20;2.55;;;;;;;;;;6214223;23;20158;-74
2021/12/08 02:51:20;;;;;;;6.80;3.47;;;;;;;;;;6214352;23;20626;-73
2021/12/08 02:53:49;;;;;;;5.78;3.10;;;;;;;;;;6214906;23;20171;-73
2021/12/08 02:56:17;;;;;;;5.25;2.95;;;;;;;;;;6214894;23;20167;-74
2021/12/08 02:58:45;;;;;;;5.95;2.90;;;;;;;;;;6215402;23;20194;-74
2021/12/08 03:01:13;;;;;;;3.53;2.63;;;;;;;;;;6216302;23;20257;-73
2021/12/08 03:03:41;;;;;;;4.10;2.15;;;;;;;;;;6216144;23;20175;-74
2021/12/08 03:06:08;;;;;;;3.60;2.80;;;;;;;;;;6216446;23;20225;-74
2021/12/08 03:08:36;;;;;;;3.70;2.60;;;;;;;;;;6216420;23;20221;-73
2021/12/08 03:11:05;;;;;;;7.00;2.97;;;;;;;;;;6216766;23;20499;-73
2021/12/08 03:13:33;;;;;;;5.63;3.30;;;;;;;;;;6215368;23;20194;-74
2021/12/08 03:16:01;;;;;;;5.53;2.90;;;;;;;;;;6217022;23;20171;-73
2021/12/08 03:18:33;;;;;;;5.47;2.60;;;;;;;;;;6215951;23;20222;-73
2021/12/08 03:21:01;;;;;;;9.55;3.38;;;;;;;;;;6216731;23;20155;-74
2021/12/08 03:23:35;;;;;;;4.50;3.25;;;;;;;;;;6216370;23;20515;-73
2021/12/08 03:26:06;;;;;;;7.30;3.63;;;;;;;;;;6216189;23;20212;-73
2021/12/08 03:28:41;;;;;;;5.47;2.78;;;;;;;;;;6215911;23;20155;-74
2021/12/08 03:31:13;;;;;;;5.97;3.85;;;;;;;;;;6215736;23;20252;-74
2021/12/08 03:33:42;;;;;;;7.15;3.20;;;;;;;;;;6216083;23;20178;-73
2021/12/08 03:36:09;;;;;;;4.82;3.63;;;;;;;;;;6215847;23;20545;-74
2021/12/08 03:38:37;;;;;;;4.05;2.72;;;;;;;;;;6216044;23;20511;-74
2021/12/08 03:41:06;;;;;;;5.18;3.20;;;;;;;;;;6216425;23;20163;-73
2021/12/08 03:43:34;;;;;;;4.05;2.80;;;;;;;;;;6215765;23;20167;-73
2021/12/08 03:46:03;;;;;;;5.70;3.63;;;;;;;;;;6216181;23;20558;-73
2021/12/08 03:48:38;;;;;;;4.10;2.85;;;-1.70;70.90;;;;;;6215549;23;20221;-73
2021/12/08 03:51:06;;;;;;;5.28;3.08;;;;;;;;;;6215992;23;20205;-74
2021/12/08 03:53:33;;;;;;;4.03;3.55;;;;;;;;;;6215903;23;20167;-73
2021/12/08 03:56:06;;;;;;;8.18;3.63;;;-0.20;73.40;;;;;;6215837;23;20167;-73
2021/12/08 03:58:36;;;;;;;6.65;3.38;;;-0.30;72.10;;;;;;6215582;23;20183;-73
2021/12/08 04:01:05;;;;;;;5.80;2.35;;;-0.30;72.60;;;;;;6216263;23;20485;-73
2021/12/08 04:03:33;;;;;;;6.68;3.55;;;-0.30;72.50;;;;;;6216379;23;20476;-73
2021/12/08 04:06:06;;;;;;;6.30;3.35;;;-0.30;72.60;;;;;;6215913;23;20194;-73
2021/12/08 04:08:41;;;;;;;6.60;4.25;;;-0.40;73.40;;;;;;6216027;23;20538;-74
2021/12/08 04:11:10;;;;;;;8.07;3.70;;;-0.30;73.80;;;;;;6215734;23;20201;-74
2021/12/08 04:13:44;;;;;;;6.18;3.75;;;-0.30;73.70;;;;;;6216241;23;20254;-73
2021/12/08 04:16:13;;;;;;;5.45;4.15;;;-0.30;72.80;;;;;;6215853;23;20630;-74
2021/12/08 04:18:40;;;;;;;7.00;4.25;;;-0.30;72.90;;;;;;6215939;23;20522;-74
2021/12/08 04:21:09;;;;;;;6.47;3.85;;;-0.20;72.90;;;;;;6216162;23;20167;-73
2021/12/08 04:23:38;;;;;;;7.28;3.67;;;-0.20;72.90;;;;;;6216269;23;20172;-73
2021/12/08 04:26:11;;;;;;;8.25;4.00;;;-0.20;72.70;;;;;;6215459;23;20163;-78
2021/12/08 04:28:43;;;;;;;7.80;3.97;;;-0.20;72.80;;;;;;6215684;23;20202;-74
2021/12/08 04:31:16;;;;;;;5.78;3.08;;;-0.20;74.30;;;;;;6215212;23;20214;-74
2021/12/08 04:33:44;;;;;;;8.68;3.95;;;-0.10;73.70;;;;;;6216113;23;20460;-73
2021/12/08 04:36:14;;;;;;;6.60;3.92;;;0.00;74.00;;;;;;6215766;23;20230;-74
2021/12/08 04:38:46;;;;;;;6.82;3.88;;;0.00;73.80;;;;;;6215864;23;20683;-73
2021/12/08 04:41:19;;;;;;;6.03;3.50;;;0.00;73.90;;;;;;6215524;23;20587;-74
2021/12/08 04:43:57;;;;;;;6.05;4.10;;;0.10;74.30;;;;;;6216205;23;20151;-73
2021/12/08 04:46:45;;;;;;;6.80;4.13;;;0.10;74.30;;;;;;6215756;23;20262;-74
2021/12/08 04:49:31;;;;;;;5.13;3.45;;;0.20;74.10;;;;;;6215458;23;20205;-74
2021/12/08 04:52:06;;;;;;;5.30;2.90;;;0.20;74.00;;;;;;6215412;23;20193;-74
2021/12/08 05:00:57;;;;;;;5.28;4.10;;;0.20;73.40;;;;;;6123423;23;20735;-74
2021/12/08 05:03:44;;;;;;;5.57;3.83;;;0.30;74.20;;;;;;6210721;23;20213;-73
2021/12/08 05:06:35;;;;;;;8.80;4.85;;;0.40;74.40;;;;;;6215931;23;20490;-73
2021/12/08 05:09:06;;;;;;;11.23;5.30;;;0.40;74.40;;;;;;6215678;23;20525;-74
2021/12/08 05:11:35;;;;;;;6.40;4.63;;;;;;;;;;6214967;23;20594;-74
2021/12/08 05:14:04;;;;;;;8.50;5.18;;;;;;;;;;6215505;23;20173;-74
2021/12/08 05:16:34;;;;;;;7.13;5.38;;;;;;;;;;6214948;23;20170;-74
2021/12/08 05:19:04;;;;;;;7.55;4.43;;;0.50;74.60;;;;;;6215110;23;20253;-74
2021/12/08 05:21:35;;;;;;;7.65;4.10;;;;;;;;;;6215856;23;20210;-74
2021/12/08 05:24:05;;;;;;;9.05;4.72;;;;;;;;;;6214771;23;20171;-74
2021/12/08 05:26:34;;;;;;;6.22;4.38;;;;;;;;;;6215755;23;20158;-74
2021/12/08 05:29:03;;;;;;;6.05;3.70;;;;;;;;;;6215614;23;20225;-74
2021/12/08 05:31:32;;;;;;;6.13;3.20;;;;;;;;;;6214868;23;20565;-74
2021/12/08 05:34:03;;;;;;;5.68;3.83;;;;;;;;;;6215695;23;20170;-74
2021/12/08 05:36:30;;;;;;;7.88;3.80;;;;;;;;;;6215083;23;20229;-73
2021/12/08 05:38:58;;;;;;;6.70;3.88;;;;;;;;;;6215247;23;20198;-73
2021/12/08 05:41:27;;;;;;;7.68;4.80;;;;;;;;;;6215291;23;20178;-74
2021/12/08 05:43:55;;;;;;;6.43;3.92;;;;;;;;;;6215189;23;20167;-73
2021/12/08 05:46:24;;;;;;;7.22;3.50;;;;;;;;;;6215518;23;20484;-73
2021/12/08 05:48:52;;;;;;;5.93;3.83;;;;;;;;;;6214924;23;20202;-74
2021/12/08 05:51:21;;;;;;;5.25;3.20;;;;;;;;;;6214598;23;20225;-74
2021/12/08 05:53:52;;;;;;;5.15;4.22;;;;;;;;;;6215236;23;20664;-73
2021/12/08 05:56:21;;;;;;;4.90;3.33;;;;;;;;;;6215404;23;20174;-73
2021/12/08 05:58:49;;;;;;;5.82;3.22;;;;;;;;;;6214780;23;20201;-73
2021/12/08 06:01:21;;;;;;;5.40;3.22;;;;;;;;;;6215289;23;20518;-73
2021/12/08 06:03:49;;;;;;;5.30;3.45;;;;;;;;;;6215355;23;20163;-74
2021/12/08 06:06:18;;;;;;;5.65;3.08;;;;;;;;;;6215421;23;20174;-74
2021/12/08 06:08:47;;;;;;;5.20;3.33;;;;;;;;;;6214833;23;20249;-75
2021/12/08 06:11:15;;;;;;;8.32;3.63;;;;;;;;;;6214795;23;20645;-74
2021/12/08 06:13:45;;;;;;;3.78;3.28;;;;;;;;;;6214794;23;20250;-74
2021/12/08 06:16:13;;;;;;;6.15;4.07;;;;;;;;;;6215339;23;20173;-74
2021/12/08 06:18:41;;;;;;;8.25;3.42;;;;;;;;;;6214506;23;20666;-74
2021/12/08 06:21:11;;;;;;;6.28;3.28;;;;;;;;;;6214673;23;20167;-74
2021/12/08 06:23:39;;;;;;;5.95;4.05;;;;;;;;;;6214959;23;20189;-73
2021/12/08 06:26:09;;;;;;;6.90;4.00;;;;;;;;;;6214891;23;20167;-74
2021/12/08 06:28:36;;;;;;;6.82;4.40;;;;;;;;;;6214745;23;20245;-74
2021/12/08 06:31:04;;;;;;;8.38;4.22;;;;;;;;;;6214727;23;20230;-74
2021/12/08 06:33:33;;;;;;;5.45;3.58;;;;;;;;;;6215426;23;20174;-74
2021/12/08 06:36:03;;;;;;;7.78;4.85;;;;;;;;;;6216792;23;20170;-74
2021/12/08 06:38:31;;;;;;;7.07;4.20;;;;;;;;;;6216261;23;20198;-73
2021/12/08 06:41:02;;;;;;;7.32;4.13;;;;;;;;;;6216597;23;20167;-74
2021/12/08 06:43:32;;;;;;;6.88;4.20;;;;;;;;;;6217401;23;20151;-74
2021/12/08 06:46:01;;;;;;;6.55;4.00;;;;;;;;;;6216463;23;20162;-74
2021/12/08 06:48:30;;;;;;;8.27;4.93;;;;;;;;;;6216791;23;20173;-73
2021/12/08 06:50:59;;;;;;;7.25;5.15;;;;;;;;;;6216983;23;20163;-74
2021/12/08 06:53:28;;;;;;;7.18;4.30;;;;;;;;;;6217027;23;20166;-74
2021/12/08 06:55:58;;;;;;;13.35;8.25;;;;;;;;;;6214164;23;20163;-74
2021/12/08 06:58:36;;;;;;;22.27;11.27;;;;;;;;;;6215969;23;20506;-73
2021/12/08 07:01:16;;;;;;;18.23;11.38;;;;;;;;;;6215600;23;20155;-74
2021/12/08 07:03:49;;;;;;;9.02;6.40;;;;;;;;;;6215974;23;20151;-75
2021/12/08 07:06:41;;;;;;;9.27;5.47;;;;;;;;;;6215609;23;20615;-74
2021/12/08 07:09:10;;;;;;;7.35;5.50;;;;;;;;;;6215805;23;20549;-73
2021/12/08 07:11:38;;;;;;;12.27;6.05;;;;;;;;;;6215729;23;20225;-73
2021/12/08 07:14:07;;;;;;;11.30;6.97;;;;;;;;;;6215673;23;20627;-74
2021/12/08 07:16:36;;;;;;;11.05;7.50;;;;;;;;;;6215464;23;20163;-74
2021/12/08 07:19:11;;;;;;;9.57;7.20;;;;;;;;;;6215301;23;20196;-73
2021/12/08 07:21:46;;;;;;;14.32;8.73;;;;;;;;;;6215921;23;20151;-75
2021/12/08 07:24:16;;;;;;;10.63;7.32;;;;;;;;;;6216002;23;20158;-74
2021/12/08 07:26:45;;;;;;;10.80;7.38;;;;;;;;;;6215925;23;20254;-74
2021/12/08 07:29:15;;;;;;;10.73;7.22;;;;;;;;;;6215493;23;20179;-74
2021/12/08 07:31:44;;;;;;;11.32;6.80;;;;;;;;;;6214808;23;20199;-73
2021/12/08 07:34:17;;;;;;;14.70;6.10;;;;;;;;;;6215667;23;20198;-74
2021/12/08 07:36:47;;;;;;;11.57;6.80;;;;;;;;;;6213223;23;20151;-74
2021/12/08 07:39:16;;;;;;;12.98;7.13;;;;;;;;;;6213820;23;20194;-73
2021/12/08 07:41:52;;;;;;;12.30;7.40;;;;;;;;;;6214648;23;20534;-74
2021/12/08 07:44:32;;;;;;;12.07;6.85;;;;;;;;;;6214804;23;20159;-75
2021/12/08 07:47:01;;;;;;;9.27;5.22;;;;;;;;;;6215117;23;20151;-73
2021/12/08 07:49:32;;;;;;;8.25;5.22;;;;;;;;;;6215085;23;20194;-73
2021/12/08 07:52:00;;;;;;;10.90;6.97;;;;;;;;;;6216224;23;20155;-73
2021/12/08 07:54:31;;;;;;;8.13;5.20;;;;;;;;;;6215105;23;20640;-73
2021/12/08 07:56:59;;;;;;;8.38;5.82;;;;;;;;;;6215609;23;20155;-73
2021/12/08 07:59:31;;;;;;;8.25;4.90;;;;;;;;;;6215430;23;20191;-74
2021/12/08 08:02:06;;;;;;;8.38;4.60;;;;;;;;;;6215249;23;20155;-74
2021/12/08 08:04:35;;;;;;;7.75;4.90;;;;;;;;;;6215109;23;20606;-73
2021/12/08 08:07:02;;;;;;;6.07;4.13;;;;;;;;;;6214963;23;20170;-73
2021/12/08 08:12:18;;;;;;;6.05;4.22;;;;;;;;;;6215272;23;20195;-73
2021/12/08 08:14:56;;;;;;;6.10;4.10;;;;;;;;;;6215265;23;20171;-75
2021/12/08 08:17:31;;;;;;;6.47;4.97;;;;;;;;;;6215472;23;20478;-73
2021/12/08 08:20:01;;;;;;;5.00;3.40;;;;;;;;;;6215237;23;20182;-74
2021/12/08 08:22:31;;;;;;;4.68;3.63;;;;;;;;;;6215564;23;20152;-73
2021/12/08 08:25:02;;;;;;;5.32;4.10;;;;;;;;;;6215412;23;20158;-73
2021/12/08 08:27:29;;;;;;;8.88;4.20;;;;;;;;;;6215495;23;20183;-74
2021/12/08 08:29:59;;;;;;;10.38;7.22;;;;;;;;;;6214763;23;20169;-74
2021/12/08 08:32:30;;;;;;;9.00;5.32;;;;;;;;;;6215270;23;20159;-72
2021/12/08 08:35:04;;;;;;;11.18;6.97;;;;;;;;;;6215017;23;20151;-74
2021/12/08 08:37:31;;;;;;;14.30;8.35;;;;;;;;;;6215595;23;20157;-74
2021/12/08 08:40:01;;;;;;;11.15;6.93;;;;;;;;;;6215552;23;20537;-73
2021/12/08 08:42:32;;;;;;;7.93;6.10;;;;;;;;;;6214911;23;20242;-74
2021/12/08 08:45:04;;;;;;;10.00;6.25;;;;;;;;;;6215037;23;20151;-74
2021/12/08 08:47:35;;;;;;;8.10;5.38;;;;;;;;;;6215600;23;20161;-73
2021/12/08 08:50:06;;;;;;;7.88;4.45;;;;;;;;;;6213332;23;20245;-74
2021/12/08 08:52:35;;;;;;;8.50;5.00;;;;;;;;;;6215167;23;20591;-74
2021/12/08 08:55:06;;;;;;;6.90;4.38;;;;;;;;;;6214856;23;20638;-73
2021/12/08 08:57:35;;;;;;;7.03;4.95;;;;;;;;;;6214620;23;20649;-74
2021/12/08 09:00:10;;;;;;;7.55;4.32;;;;;;;;;;6214131;23;20241;-73
2021/12/08 09:02:39;;;;;;;6.60;5.53;;;;;;;;;;6214278;23;20162;-75
2021/12/08 09:05:09;;;;;;;7.40;4.18;;;;;;;;;;6215383;23;20171;-73
2021/12/08 09:07:39;;;;;;;8.07;5.20;;;;;;;;;;6214540;23;20629;-73
2021/12/08 09:10:09;;;;;;;17.52;8.38;;;;;;;;;;6214791;23;20167;-75
2021/12/08 09:12:44;;;;;;;14.95;8.52;;;;;;;;;;6215020;23;20163;-73
2021/12/08 09:15:16;;;;;;;9.90;6.47;;;;;;;;;;6215039;23;20155;-73
2021/12/08 09:17:45;;;;;;;7.15;5.03;;;;;;;;;;6214871;23;20155;-74
2021/12/08 09:20:15;;;;;;;9.45;6.55;;;;;;;;;;6214411;23;20286;-73
2021/12/08 09:22:54;;;;;;;8.88;5.35;;;;;;;;;;6214997;23;20178;-73
2021/12/08 09:25:28;;;;;;;6.85;4.85;;;;;;;;;;6214401;23;20193;-73
2021/12/08 09:27:57;;;;;;;10.82;6.38;;;;;;;;;;6214683;23;20151;-72
2021/12/08 09:30:33;;;;;;;8.52;5.95;;;;;;;;;;6214438;23;20203;-74
2021/12/08 09:33:02;;;;;;;12.02;7.40;;;;;;;;;;6214925;23;20151;-73
2021/12/08 09:35:37;;;;;;;8.48;5.10;;;;;;;;;;6214174;23;20163;-75
2021/12/08 09:38:07;;;;;;;5.63;4.50;;;;;;;;;;6214565;23;20158;-73
2021/12/08 09:40:37;;;;;;;5.93;4.20;;;;;;;;;;6214526;23;20194;-73
2021/12/08 09:43:07;;;;;;;5.25;4.28;;;;;;;;;;6214553;23;20524;-73
2021/12/08 09:45:40;;;;;;;6.70;4.50;;;;;;;;;;6214813;23;20245;-73
2021/12/08 09:48:10;;;;;;;7.50;4.65;;;;;;;;;;6214291;23;20634;-75
2021/12/08 09:50:43;;;;;;;6.43;4.30;;;;;;;;;;6214829;23;20163;-73
2021/12/08 09:53:11;;;;;;;5.90;4.60;;;;;;;;;;6214428;23;20151;-74
2021/12/08 09:55:40;;;;;;;8.27;5.00;;;;;;;;;;6213741;23;20644;-74
2021/12/08 09:58:10;;;;;;;6.57;4.40;;;;;;;;;;6214052;23;20722;-73
2021/12/08 10:00:40;;;;;;;5.80;4.43;;;;;;;;;;6214741;23;20183;-73
2021/12/08 10:03:16;;;;;;;8.75;5.18;;;;;;;;;;6214455;23;20625;-75
2021/12/08 10:05:44;;;;;;;7.68;4.43;;;;;;;;;;6214603;23;20163;-73
2021/12/08 10:08:12;;;;;;;7.78;5.28;;;;;;;;;;6214570;23;20169;-73
2021/12/08 10:10:41;;;;;;;6.68;5.13;;;;;;;;;;6214282;23;20623;-74
2021/12/08 10:13:09;;;;;;;7.53;5.53;;;;;;;;;;6214481;23;20194;-73
2021/12/08 10:15:36;;;;;;;7.22;4.57;;;;;;;;;;6213973;23;20221;-72
2021/12/08 10:18:05;;;;;;;8.73;4.57;;;;;;;;;;6214221;23;20193;-75
2021/12/08 10:20:34;;;;;;;9.85;6.78;;;;;;;;;;6214482;23;20182;-73
2021/12/08 10:23:13;;;;;;;9.20;5.15;;;;;;;;;;6213944;23;20193;-73
2021/12/08 10:25:44;;;;;;;7.68;4.30;;;;;;;;;;6214045;23;20218;-73
2021/12/08 10:28:14;;;;;;;7.05;4.35;;;;;;;;;;6214034;23;20904;-75
2021/12/08 10:30:46;;;;;;;5.82;3.85;;;;;;;;;;6213588;23;20191;-73
2021/12/08 10:33:35;;;;;;;7.22;3.92;;;;;;;;;;6213931;23;20162;-73
2021/12/08 10:36:18;;;;;;;5.90;3.83;;;;;;;;;;6213526;23;20159;-73
2021/12/08 10:38:45;;;;;;;8.40;4.05;;;;;;;;;;6214305;23;20182;-73
2021/12/08 10:41:12;;;;;;;5.68;4.18;;;;;;;;;;6214237;23;20171;-72
2021/12/08 10:43:40;;;;;;;5.93;3.10;;;;;;;;;;6214807;23;20467;-73
2021/12/08 10:46:09;;;;;;;4.88;2.88;;;;;;;;;;6213794;23;20245;-73
2021/12/08 10:48:44;;;;;;;5.20;2.55;;;;;;;;;;6214608;23;20670;-73
2021/12/08 10:54:30;;;;;;;3.83;2.45;;;;;;;;;;6214239;23;20158;-73
2021/12/08 10:56:58;;;;;;;6.80;3.20;;;;;;;;;;6213999;23;20213;-73
2021/12/08 10:59:27;;;;;;;5.80;2.90;;;;;;;;;;6214394;23;20191;-74
2021/12/08 11:01:59;;;;;;;4.72;3.17;;;;;;;;;;6214425;23;20613;-74
2021/12/08 11:04:30;;;;;;;3.95;2.95;;;;;;;;;;6213746;23;20159;-73
2021/12/08 11:07:10;;;;;;;5.25;3.13;;;;;;;;;;6214305;23;20209;-74
2021/12/08 11:09:42;;;;;;;6.03;3.83;;;;;;;;;;6214744;23;20151;-73
2021/12/08 11:12:10;;;;;;;4.15;3.75;;;;;;;;;;6213938;23;20174;-73
2021/12/08 11:14:46;;;;;;;5.15;4.45;;;;;;;;;;6214019;23;20178;-73
2021/12/08 11:17:28;;;;;;;4.80;3.55;;;;;;;;;;6213692;23;20175;-75
2021/12/08 11:20:10;;;;;;;4.90;3.75;;;;;;;;;;6214888;23;20557;-73
2021/12/08 11:22:43;;;;;;;4.65;3.30;;;;;;;;;;6215209;23;20173;-75
2021/12/08 11:25:21;;;;;;;5.68;3.13;;;;;;;;;;6216291;23;20158;-72
2021/12/08 11:27:50;;;;;;;6.22;3.28;;;;;;;;;;6216112;23;20158;-74
2021/12/08 11:30:28;;;;;;;9.95;7.07;;;;;;;;;;6214733;23;20663;-73
2021/12/08 11:33:11;;;;;;;14.73;10.50;;;;;;;;;;6215581;23;20251;-74
2021/12/08 11:35:38;;;;;;;7.72;5.22;;;;;;;;;;6215628;23;20163;-73
2021/12/08 11:38:07;;;;;;;10.98;7.22;;;;;;;;;;6216189;23;20163;-73
2021/12/08 11:40:35;;;;;;;7.30;5.35;;;;;;;;;;6215933;23;20191;-73
2021/12/08 11:43:02;;;;;;;9.35;5.63;;;;;;;;;;6215358;23;20206;-74
2021/12/08 11:45:39;;;;;;;7.10;5.40;;;;;;;;;;6215703;23;20174;-73
2021/12/08 11:48:22;;;;;;;14.10;8.05;;;;;;;;;;6215882;23;20186;-74
2021/12/08 11:50:49;;;;;;;8.15;4.90;;;;;;;;;;6216209;23;20670;-73
2021/12/08 11:53:23;;;;;;;8.15;5.97;;;;;;;;;;6215419;23;20242;-72
2021/12/08 11:55:50;;;;;;;10.65;5.88;;;;;;;;;;6215247;23;20155;-73
2021/12/08 11:58:18;;;;;;;5.55;4.32;;;;;;;;;;6215691;23;20163;-73
2021/12/08 12:00:52;;;;;;;4.68;2.80;;;;;;;;;;6213661;23;20194;-73
2021/12/08 12:03:23;;;;;;;4.15;2.97;;;;;;;;;;6215146;23;20158;-72
2021/12/08 12:05:51;;;;;;;4.55;3.25;;;;;;;;;;6215578;23;20155;-74
2021/12/08 12:08:19;;;;;;;12.23;5.60;;;;;;;;;;6215259;23;20218;-73
2021/12/08 12:10:50;;;;;;;7.65;5.10;;;;;;;;;;6215230;23;20202;-73
2021/12/08 12:13:17;;;;;;;4.80;4.30;;;;;;;;;;6215100;23;20230;-73
2021/12/08 12:15:47;;;;;;;8.45;5.22;;;;;;;;;;6215505;23;20466;-73
2021/12/08 12:18:15;;;;;;;7.75;5.75;;;;;;;;;;6215063;23;20179;-73
2021/12/08 12:20:46;;;;;;;6.90;4.63;;;;;;;;;;6215107;23;20269;-73
2021/12/08 12:23:44;;;;;;;6.60;4.65;;;;;;;;;;6216284;23;20159;-72
2021/12/08 12:26:21;;;;;;;5.85;3.50;;;;;;;;;;6215672;23;20166;-72
2021/12/08 12:29:03;;;;;;;8.02;3.88;;;;;;;;;;6215971;23;20475;-72
2021/12/08 12:31:34;;;;;;;4.90;3.33;;;;;;;;;;6214847;23;20194;-72
2021/12/08 12:34:01;;;;;;;4.82;2.40;;;;;;;;;;6215608;23;20186;-73
2021/12/08 12:36:30;;;;;;;5.63;3.33;;;;;;;;;;6215695;23;20174;-73
2021/12/08 12:39:11;;;;;;;5.43;3.10;;;;;;;;;;6215499;23;20170;-72
2021/12/08 12:41:40;;;;;;;6.50;4.03;;;;;;;;;;6215440;23;20210;-73
2021/12/08 12:44:24;;;;;;;6.55;5.05;;;;;;;;;;6215234;23;20205;-72
2021/12/08 12:47:13;;;;;;;6.88;4.45;;;;;;;;;;6215323;23;20156;-72
2021/12/08 12:49:41;;;;;;;7.68;6.75;;;;;;;;;;6215227;23;20522;-74
2021/12/08 12:52:10;;;;;;;11.20;7.22;;;;;;;;;;6215428;23;20246;-73
2021/12/08 12:54:39;;;;;;;9.50;7.70;;;;;;;;;;6215204;23;20340;-73
2021/12/08 12:57:10;;;;;;;9.73;7.28;;;;;;;;;;6215327;23;20163;-73
2021/12/08 12:59:43;;;;;;;10.32;7.35;;;;;;;;;;6212005;23;20152;-75
2021/12/08 13:02:11;;;;;;;8.35;5.80;;;;;;;;;;6215485;23;20167;-73
2021/12/08 13:04:51;;;;;;;5.82;4.30;;;;;;;;;;6214772;23;20179;-75
2021/12/08 13:07:18;;;;;;;4.72;4.13;;;;;;;;;;6215123;23;20205;-72
2021/12/08 13:09:52;;;;;;;4.95;3.13;;;;;;;;;;6213704;23;20174;-72
2021/12/08 13:12:25;;;;;;;4.40;2.85;;;;;;;;;;6215727;23;20239;-73
2021/12/08 13:15:06;;;;;;;4.10;2.90;;;;;;;;;;6214464;23;20226;-73
2021/12/08 13:17:34;;;;;;;3.72;2.47;;;;;;;;;;6214810;23;20623;-73
2021/12/08 13:20:02;;;;;;;4.07;2.95;;;;;;;;;;6214577;23;20228;-73
2021/12/08 13:22:51;;;;;;;3.40;2.15;;;;;;;;;;6215304;23;20167;-73
2021/12/08 13:25:25;;;;;;;4.93;3.13;;;;;;;;;;6215387;23;20163;-72
2021/12/08 13:27:56;;;;;;;5.10;3.00;;;;;;;;;;6214571;23;20208;-72
2021/12/08 13:30:23;;;;;;;4.20;3.55;;;;;;;;;;6212013;23;20218;-73
2021/12/08 13:32:57;;;;;;;5.30;3.35;;;;;;;;;;6213708;23;20901;-73
2021/12/08 13:35:33;;;;;;;4.05;3.13;;;;;;;;;;6213278;23;20155;-72
2021/12/08 13:38:01;;;;;;;6.13;3.65;;;;;;;;;;6213622;23;20209;-73
2021/12/08 13:40:41;;;;;;;5.68;3.85;;;;;;;;;;6214081;23;20270;-72
2021/12/08 13:43:13;;;;;;;5.28;3.80;;;;;;;;;;6214018;23;20680;-73
2021/12/08 13:45:46;;;;;;;5.60;2.85;;;;;;;;;;6214354;23;20210;-72
2021/12/08 13:48:13;;;;;;;7.03;3.47;;;;;;;;;;6212450;23;20171;-72
2021/12/08 13:50:40;;;;;;;8.68;5.40;;;;;;;;;;6214917;23;20213;-73
2021/12/08 13:53:08;;;;;;;7.00;6.05;;;;;;;;;;6214496;23;20167;-73
2021/12/08 13:55:40;;;;;;;6.90;5.45;;;;;;;;;;6212732;23;20648;-73
2021/12/08 13:58:14;;;;;;;8.90;5.43;;;;;;;;;;6213256;23;20151;-72
2021/12/08 14:00:43;;;;;;;7.05;5.25;;;;;;;;;;6214357;23;20240;-73
2021/12/08 14:03:12;;;;;;;7.50;5.05;;;;;;;;;;6214733;23;20167;-73
2021/12/08 14:05:41;;;;;;;8.75;6.13;;;;;;;;;;6214876;23;20242;-74
2021/12/08 14:08:10;;;;;;;8.50;6.50;;;;;;;;;;6214463;23;20217;-73
2021/12/08 14:10:44;;;;;;;8.65;6.15;;;;;;;;;;6214875;23;20159;-74
2021/12/08 14:13:14;;;;;;;6.57;5.55;;;;;;;;;;6214696;23;20155;-74
2021/12/08 14:15:46;;;;;;;7.65;5.70;;;;;;;;;;6214517;23;20170;-73
2021/12/08 14:18:14;;;;;;;9.80;5.93;;;;;;;;;;6214943;23;20159;-74
2021/12/08 14:20:42;;;;;;;6.97;4.97;;;;;;;;;;6213160;23;20270;-74
2021/12/08 14:23:10;;;;;;;9.20;5.07;;;;;;;;;;6214429;23;20162;-73
2021/12/08 14:25:43;;;;;;;6.70;5.60;;;;;;;;;;6214579;23;20221;-73
2021/12/08 14:28:31;;;;;;;7.88;5.68;;;;;;;;;;6214343;23;20151;-73
2021/12/08 14:30:59;;;;;;;8.05;5.40;;;;;;;;;;6213938;23;20242;-73
2021/12/08 14:33:28;;;;;;;6.75;5.95;;;;;;;;;;6214523;23;20174;-73
2021/12/08 14:35:56;;;;;;;7.35;5.82;;;;;;;;;;6214399;23;20182;-73
2021/12/08 14:38:23;;;;;;;7.32;5.05;;;;;;;;;;6215140;23;20175;-73
2021/12/08 14:40:51;;;;;;;6.38;5.25;;;;;;;;;;6213976;23;20182;-74
2021/12/08 14:43:33;;;;;;;8.65;5.45;;;;;;;;;;6215036;23;20194;-73
2021/12/08 14:46:10;;;;;;;6.30;4.85;;;;;;;;;;6214337;23;20469;-73
2021/12/08 14:48:44;;;;;;;6.25;4.82;;;;;;;;;;6214605;23;20198;-73
2021/12/08 14:51:11;;;;;;;7.00;4.82;;;;;;;;;;6214173;23;20202;-74
2021/12/08 14:53:40;;;;;;;7.13;5.35;;;;;;;;;;6214470;23;20242;-73
2021/12/08 14:56:09;;;;;;;6.40;5.45;;;;;;;;;;6214060;23;20213;-73
2021/12/08 14:58:40;;;;;;;6.13;4.80;;;;;;;;;;6215564;23;20185;-73
2021/12/08 15:01:08;;;;;;;9.73;4.55;;;;;;;;;;6215973;23;20686;-73
2021/12/08 15:03:41;;;;;;;4.32;3.42;;;;;;;;;;6216257;23;20163;-73
2021/12/08 15:06:08;;;;;;;4.57;3.50;;;;;;;;;;6216301;23;20152;-72
2021/12/08 15:08:41;;;;;;;5.93;3.38;;;;;;;;;;6215845;23;20171;-74
2021/12/08 15:11:09;;;;;;;6.43;3.90;;;;;;;;;;6215384;23;20155;-73
2021/12/08 15:13:38;;;;;;;6.72;3.53;;;;;;;;;;6216534;23;20174;-73
2021/12/08 15:16:12;;;;;;;8.65;4.15;;;;;;;;;;6215809;23;20249;-74
2021/12/08 15:18:40;;;;;;;3.85;2.40;;;;;;;;;;6213940;23;20466;-73
2021/12/08 15:21:10;;;;;;;5.35;3.33;;;;;;;;;;6215460;23;20274;-73